Terminal Aerodrome Forecast
Issued by NWS

Home | Current Version | Previous Version | Text Only | Print | Product List | Glossary On
Versions: 1 2 3 4 5 6 7 8 9 10 11 12 13 14
821
FTUS42 KMLB 232347 CCA
TAFFPR
TAF COR
KFPR 232347Z 2400/2424 10009KT P6SM VCSH SCT025 BKN040 OVC250
      TEMPO 2400/2401 -SHRA SCT015 BKN025
     FM240200 15003KT P6SM SCT025 BKN250
     FM240900 VRB02KT P6SM BKN010
     FM241400 26009KT P6SM SCT030
      TEMPO 2415/2418 BKN035
     FM241800 27016G24KT P6SM SCT040=

USA.gov is the U.S. government's official web portal to all federal, state and local government web resources and services.